Time;durP1;ratioP1;P1;durP2;ratioP2;P2;SDS_P1;SDS_P2;PMS_P1;PMS_P2;Temp;Humidity;BMP_temperature;BMP_pressure;BME280_temperature;BME280_humidity;BME280_pressure;Samples;Min_cycle;Max_cycle;Signal;HPM_P1;HPM_P2
2024/01/24 00:02:57;;;;;;;33.97;6.43;;;11.50;99.90;;;;;;10440247;28;20048;-61
2024/01/24 00:07:59;;;;;;;28.27;6.57;;;11.60;99.90;;;;;;10440940;28;20090;-62
2024/01/24 00:13:03;;;;;;;32.78;5.82;;;11.60;99.90;;;;;;10436229;28;20056;-63
2024/01/24 00:18:05;;;;;;;27.15;5.85;;;11.50;99.90;;;;;;10427001;28;20053;-63
2024/01/24 00:23:07;;;;;;;30.00;4.90;;;11.40;99.90;;;;;;10425900;28;20566;-62
2024/01/24 00:28:12;;;;;;;29.80;6.77;;;11.40;99.90;;;;;;10422976;28;20085;-62
2024/01/24 00:33:16;;;;;;;21.02;4.93;;;11.30;99.90;;;;;;10439322;28;20049;-61
2024/01/24 00:38:18;;;;;;;31.30;4.90;;;11.30;99.90;;;;;;10442206;28;20042;-63
2024/01/24 00:43:22;;;;;;;32.83;6.78;;;11.20;99.90;;;;;;10435927;28;20130;-62
2024/01/24 00:48:24;;;;;;;33.28;4.53;;;11.10;99.90;;;;;;10436685;28;20551;-62
2024/01/24 00:53:26;;;;;;;68.32;9.07;;;11.20;99.90;;;;;;10444108;28;21324;-60
2024/01/24 00:58:30;;;;;;;49.13;8.13;;;11.10;99.90;;;;;;10441401;28;20397;-63
2024/01/24 01:03:32;;;;;;;56.50;10.80;;;11.10;99.90;;;;;;10446815;28;20430;-62
2024/01/24 01:08:34;;;;;;;50.08;8.43;;;11.00;99.90;;;;;;10444106;28;20079;-60
2024/01/24 01:13:37;;;;;;;54.00;10.27;;;11.00;99.90;;;;;;10443848;28;20059;-62
2024/01/24 01:18:39;;;;;;;40.03;6.75;;;11.00;99.90;;;;;;10434789;28;20121;-63
2024/01/24 01:23:41;;;;;;;37.40;8.73;;;11.00;99.90;;;;;;10440107;28;20071;-63
2024/01/24 01:28:45;;;;;;;34.58;6.50;;;11.00;99.90;;;;;;10438418;28;20080;-62
2024/01/24 01:33:46;;;;;;;54.17;10.18;;;11.10;99.90;;;;;;10436420;28;20167;-63
2024/01/24 01:38:49;;;;;;;38.58;6.00;;;11.00;99.90;;;;;;10431282;28;20084;-62
2024/01/24 01:43:52;;;;;;;61.00;12.73;;;11.00;99.90;;;;;;10438120;28;20188;-62
2024/01/24 01:48:58;;;;;;;44.55;7.93;;;10.90;99.90;;;;;;10435004;28;20044;-64
2024/01/24 01:54:01;;;;;;;63.22;11.48;;;10.70;99.90;;;;;;10427002;28;20060;-62
2024/01/24 01:59:05;;;;;;;59.58;10.50;;;10.80;99.90;;;;;;10431846;28;20950;-62
2024/01/24 02:04:07;;;;;;;52.88;10.68;;;10.90;99.90;;;;;;10438779;28;20570;-62
2024/01/24 02:09:10;;;;;;;62.65;8.73;;;10.80;99.90;;;;;;10440345;28;20051;-62
2024/01/24 02:14:13;;;;;;;52.75;10.18;;;10.80;99.90;;;;;;10436888;28;22882;-62
2024/01/24 02:19:16;;;;;;;66.97;8.55;;;10.80;99.90;;;;;;10439084;28;20771;-63
2024/01/24 02:24:19;;;;;;;55.07;9.03;;;10.70;99.90;;;;;;10447240;28;20048;-63
2024/01/24 02:29:21;;;;;;;54.58;8.18;;;10.70;99.90;;;;;;10442786;28;20791;-63
2024/01/24 02:34:23;;;;;;;55.28;9.68;;;10.60;99.90;;;;;;10434598;28;20056;-63
2024/01/24 02:39:27;;;;;;;77.50;10.07;;;10.60;99.90;;;;;;10439218;28;20055;-62
2024/01/24 02:44:29;;;;;;;59.95;11.07;;;10.60;99.90;;;;;;10440577;28;20760;-61
2024/01/24 02:49:31;;;;;;;61.92;9.30;;;10.50;99.90;;;;;;10438332;28;20111;-62
2024/01/24 02:54:37;;;;;;;52.37;7.63;;;10.40;99.90;;;;;;10439355;28;20055;-61
2024/01/24 02:59:39;;;;;;;56.80;8.55;;;10.40;99.90;;;;;;10435448;28;20056;-63
2024/01/24 03:04:41;;;;;;;41.23;6.83;;;10.30;99.90;;;;;;10430440;28;20127;-62
2024/01/24 03:09:44;;;;;;;61.30;10.75;;;10.30;99.90;;;;;;10439158;28;20496;-62
2024/01/24 03:14:46;;;;;;;59.58;8.27;;;10.30;99.90;;;;;;10439088;28;20056;-63
2024/01/24 03:19:48;;;;;;;47.30;6.60;;;10.20;99.90;;;;;;10433175;28;20052;-63
2024/01/24 03:24:52;;;;;;;70.55;12.00;;;10.30;99.90;;;;;;10442800;28;20056;-62
2024/01/24 03:29:55;;;;;;;57.35;8.02;;;10.00;99.90;;;;;;10435110;28;20612;-63
2024/01/24 03:34:59;;;;;;;72.10;11.75;;;9.90;99.90;;;;;;10438809;28;20056;-62
2024/01/24 03:40:03;;;;;;;66.55;9.60;;;10.00;99.90;;;;;;10448059;28;20071;-62
2024/01/24 03:45:06;;;;;;;73.75;13.10;;;9.90;99.90;;;;;;10439232;28;20052;-61
2024/01/24 03:50:08;;;;;;;63.28;10.57;;;9.80;99.90;;;;;;10445888;28;20059;-62
2024/01/24 03:55:12;;;;;;;84.53;14.83;;;9.80;99.90;;;;;;10442992;28;20049;-62
2024/01/24 04:15:32;;;;;;;85.07;13.65;;;9.90;99.90;;;;;;10531059;27;20214;-63
2024/01/24 04:20:34;;;;;;;89.70;17.80;;;9.90;99.90;;;;;;10543397;28;20054;-62
2024/01/24 04:25:36;;;;;;;82.88;13.70;;;9.80;99.90;;;;;;10546134;28;20051;-62
2024/01/24 04:30:40;;;;;;;80.70;14.20;;;9.80;99.90;;;;;;10539728;28;20776;-62
2024/01/24 04:35:42;;;;;;;82.18;14.45;;;9.80;99.90;;;;;;10543164;28;20070;-63
2024/01/24 04:40:44;;;;;;;75.25;12.00;;;9.80;99.90;;;;;;10539285;28;20051;-63
2024/01/24 04:45:48;;;;;;;82.17;15.70;;;9.80;99.90;;;;;;10543333;28;20058;-63
2024/01/24 04:50:50;;;;;;;79.43;12.30;;;9.80;99.90;;;;;;10544677;28;20047;-63
2024/01/24 04:55:52;;;;;;;81.43;15.50;;;9.80;99.90;;;;;;10540358;28;20075;-63
2024/01/24 05:00:56;;;;;;;74.20;10.50;;;10.00;99.90;;;;;;10538023;28;20419;-63
2024/01/24 05:05:59;;;;;;;75.53;11.35;;;9.90;99.90;;;;;;10532394;28;20044;-62
2024/01/24 05:11:01;;;;;;;68.23;9.87;;;9.70;99.90;;;;;;10541750;28;20052;-61
2024/01/24 05:16:05;;;;;;;85.13;12.07;;;9.60;99.90;;;;;;10535750;28;20101;-62
2024/01/24 05:21:10;;;;;;;88.63;15.80;;;9.40;99.90;;;;;;10536286;28;20051;-62
2024/01/24 05:26:12;;;;;;;89.07;13.23;;;9.40;99.90;;;;;;10505094;28;20216;-62
2024/01/24 05:31:16;;;;;;;90.97;13.00;;;9.50;99.90;;;;;;10509456;28;20055;-61
2024/01/24 05:36:18;;;;;;;86.65;14.15;;;9.40;99.90;;;;;;10511430;28;20225;-62
2024/01/24 05:41:20;;;;;;;91.47;13.25;;;9.40;99.90;;;;;;10510106;28;20044;-61
2024/01/24 05:46:23;;;;;;;112.13;17.75;;;9.20;99.90;;;;;;10500981;28;20132;-62
2024/01/24 05:51:25;;;;;;;83.43;10.65;;;9.00;99.90;;;;;;10507179;28;20417;-63
2024/01/24 05:56:27;;;;;;;99.22;16.15;;;9.20;99.90;;;;;;10504655;28;20047;-63
2024/01/24 06:01:31;;;;;;;75.10;14.23;;;9.10;99.90;;;;;;10506867;28;20047;-63
2024/01/24 06:06:32;;;;;;;66.38;10.75;;;9.00;99.90;;;;;;10512167;28;20556;-63
2024/01/24 06:11:34;;;;;;;71.95;10.43;;;9.40;99.90;;;;;;10510565;28;20052;-63
2024/01/24 06:16:38;;;;;;;63.92;12.75;;;9.60;99.90;;;;;;10502547;28;20055;-63
2024/01/24 06:21:40;;;;;;;84.22;13.40;;;9.80;99.90;;;;;;10508293;28;20431;-63
2024/01/24 06:26:42;;;;;;;67.57;14.00;;;9.70;99.90;;;;;;10508713;28;20134;-63
2024/01/24 06:31:46;;;;;;;60.63;10.25;;;9.60;99.90;;;;;;10507395;28;20075;-62
2024/01/24 06:36:49;;;;;;;60.03;9.85;;;9.80;99.90;;;;;;10496081;28;20076;-63
2024/01/24 06:41:51;;;;;;;73.68;11.60;;;9.80;99.90;;;;;;10497360;28;20063;-63
2024/01/24 06:46:54;;;;;;;64.25;14.50;;;9.60;99.90;;;;;;10500161;28;20052;-63
2024/01/24 06:51:57;;;;;;;87.00;15.57;;;9.70;99.90;;;;;;10498810;28;20139;-62
2024/01/24 06:56:59;;;;;;;70.43;11.32;;;9.60;99.90;;;;;;10497249;28;20059;-62
2024/01/24 07:02:03;;;;;;;65.00;11.23;;;9.80;99.90;;;;;;10502642;28;20051;-61
2024/01/24 07:07:08;;;;;;;64.15;10.73;;;9.60;99.90;;;;;;10496852;28;20083;-60
2024/01/24 07:12:09;;;;;;;72.40;16.63;;;9.60;99.90;;;;;;10496306;28;20060;-61
2024/01/24 07:17:13;;;;;;;70.72;8.70;;;9.70;99.90;;;;;;10502323;28;20102;-64
2024/01/24 07:22:15;;;;;;;57.05;9.90;;;9.70;99.90;;;;;;10502221;28;20051;-61
2024/01/24 07:27:18;;;;;;;71.90;13.97;;;9.90;99.90;;;;;;10498353;28;20077;-61
2024/01/24 07:32:21;;;;;;;60.77;11.27;;;9.90;99.90;;;;;;10500649;28;20124;-62
2024/01/24 07:37:23;;;;;;;68.18;13.02;;;9.70;99.90;;;;;;10504677;28;20055;-64
2024/01/24 07:42:25;;;;;;;72.13;10.93;;;9.70;99.90;;;;;;10506841;28;20651;-61
2024/01/24 07:47:29;;;;;;;75.47;17.03;;;9.70;99.90;;;;;;10499861;28;20044;-62
2024/01/24 07:52:31;;;;;;;61.20;10.27;;;9.70;99.90;;;;;;10501927;28;20100;-61
2024/01/24 07:57:33;;;;;;;66.00;11.32;;;9.70;99.90;;;;;;10504406;28;20218;-62
2024/01/24 08:02:36;;;;;;;62.13;8.98;;;9.70;99.90;;;;;;10508031;28;20044;-61
2024/01/24 08:07:40;;;;;;;80.60;15.30;;;9.70;99.90;;;;;;10507921;28;20060;-61
2024/01/24 08:12:42;;;;;;;73.78;14.70;;;9.60;99.90;;;;;;10503217;28;20158;-61
2024/01/24 08:17:45;;;;;;;55.77;11.43;;;9.60;99.90;;;;;;10502701;28;20056;-61
2024/01/24 08:22:47;;;;;;;79.53;13.50;;;9.70;99.90;;;;;;10503809;28;20861;-61
2024/01/24 08:27:50;;;;;;;63.40;10.60;;;9.60;99.90;;;;;;10503285;28;20093;-61
2024/01/24 08:32:53;;;;;;;62.67;10.18;;;9.70;99.90;;;;;;10500149;28;20099;-62
2024/01/24 08:37:56;;;;;;;61.35;11.65;;;9.60;99.90;;;;;;10497926;28;20054;-61
2024/01/24 08:42:58;;;;;;;67.20;12.37;;;9.80;99.90;;;;;;10496329;28;20177;-61
2024/01/24 08:48:01;;;;;;;70.17;12.53;;;9.70;99.90;;;;;;10501491;28;20575;-60
2024/01/24 08:53:04;;;;;;;62.85;10.85;;;9.70;99.90;;;;;;10498521;28;20552;-62
2024/01/24 08:58:06;;;;;;;60.47;11.13;;;9.80;99.90;;;;;;10492342;28;20848;-62
2024/01/24 09:03:12;;;;;;;53.67;9.73;;;9.80;99.90;;;;;;10518058;28;20059;-61
2024/01/24 09:08:14;;;;;;;73.18;13.18;;;9.80;99.90;;;;;;10507660;28;20418;-63
2024/01/24 09:13:20;;;;;;;74.07;11.70;;;9.60;99.90;;;;;;10503539;28;20423;-61
2024/01/24 09:18:23;;;;;;;67.47;12.25;;;9.80;99.90;;;;;;10507115;28;21329;-61
2024/01/24 09:23:27;;;;;;;65.43;12.13;;;9.70;99.90;;;;;;10505636;28;20145;-61
2024/01/24 09:28:29;;;;;;;;;;;9.80;99.90;;;;;;10502869;28;20142;-62
2024/01/24 09:33:33;;;;;;;83.20;13.05;;;9.80;99.90;;;;;;10505814;28;19920;-62
2024/01/24 09:38:35;;;;;;;83.20;13.10;;;9.80;99.90;;;;;;10506244;28;20087;-62
2024/01/24 09:43:40;;;;;;;62.72;11.07;;;9.80;99.90;;;;;;10505659;28;20277;-60
2024/01/24 09:48:46;;;;;;;75.68;14.02;;;9.80;99.90;;;;;;10504491;28;20094;-61
2024/01/24 09:53:49;;;;;;;78.75;12.85;;;9.80;99.90;;;;;;10504478;28;20055;-63
2024/01/24 09:58:52;;;;;;;75.05;14.07;;;9.80;99.90;;;;;;10498705;28;20618;-62
2024/01/24 10:03:56;;;;;;;62.08;11.32;;;10.00;99.90;;;;;;10503755;28;20048;-61
2024/01/24 10:08:58;;;;;;;84.45;14.43;;;10.10;99.90;;;;;;10501853;28;20699;-59
2024/01/24 10:14:00;;;;;;;64.03;12.77;;;10.10;99.90;;;;;;10500673;28;20114;-62
2024/01/24 10:19:05;;;;;;;76.65;12.52;;;10.20;99.90;;;;;;10503223;28;20063;-60
2024/01/24 10:24:09;;;;;;;61.17;8.40;;;10.10;99.90;;;;;;10500993;28;20043;-62
2024/01/24 10:29:12;;;;;;;57.97;10.60;;;10.20;99.90;;;;;;10505252;28;20439;-62
2024/01/24 10:34:15;;;;;;;53.22;8.70;;;10.00;99.90;;;;;;10499709;28;20052;-61
2024/01/24 10:39:18;;;;;;;60.63;11.65;;;10.20;99.90;;;;;;10504931;28;20384;-61
2024/01/24 10:44:26;;;;;;;49.50;10.30;;;10.20;99.90;;;;;;10500414;28;20051;-66
2024/01/24 10:49:30;;;;;;;61.97;12.48;;;10.20;99.90;;;;;;10503868;28;20055;-60
2024/01/24 10:54:35;;;;;;;75.80;17.48;;;10.20;99.90;;;;;;10498473;28;20048;-61
2024/01/24 10:59:40;;;;;;;72.68;13.23;;;10.30;99.90;;;;;;10498847;28;20514;-61
2024/01/24 11:04:44;;;;;;;42.70;8.60;;;10.30;99.90;;;;;;10511280;28;20085;-62
2024/01/24 11:09:54;;;;;;;74.22;12.02;;;10.40;99.90;;;;;;10501276;28;20089;-62
2024/01/24 11:15:05;;;;;;;47.05;11.30;;;10.30;99.90;;;;;;10502267;28;20067;-62
2024/01/24 11:20:09;;;;;;;64.32;11.23;;;10.30;99.90;;;;;;10501008;28;20055;-62
2024/01/24 11:25:12;;;;;;;58.22;11.48;;;10.30;99.90;;;;;;10495857;28;20048;-61
2024/01/24 11:30:37;;;;;;;69.45;14.18;;;10.30;99.90;;;;;;10499704;28;20044;-64
2024/01/24 11:35:44;;;;;;;66.80;11.48;;;10.20;99.90;;;;;;10499452;28;20052;-61
2024/01/24 11:40:49;;;;;;;64.93;11.45;;;10.40;99.90;;;;;;10499814;28;20799;-62
2024/01/24 11:45:53;;;;;;;56.97;9.57;;;10.30;99.90;;;;;;10500554;28;20667;-62
2024/01/24 11:50:58;;;;;;;69.30;15.65;;;10.40;99.90;;;;;;10500394;28;20521;-62
2024/01/24 11:56:02;;;;;;;72.45;10.60;;;10.40;99.90;;;;;;10504111;28;20040;-62
2024/01/24 12:01:05;;;;;;;52.08;10.82;;;10.40;99.90;;;;;;10496694;28;20051;-62
2024/01/24 12:06:09;;;;;;;;;;;10.40;99.90;;;;;;10501185;28;20722;-62
2024/01/24 12:11:11;;;;;;;70.55;14.93;;;10.30;99.90;;;;;;10502872;28;19923;-63
2024/01/24 12:16:28;;;;;;;49.47;7.53;;;10.30;99.90;;;;;;10501809;28;20052;-63
2024/01/24 12:21:31;;;;;;;53.75;8.95;;;10.30;99.90;;;;;;10499624;28;20417;-62
2024/01/24 12:26:34;;;;;;;70.88;10.32;;;10.30;99.90;;;;;;10503328;28;20772;-62
2024/01/24 12:31:38;;;;;;;67.85;10.88;;;10.40;99.90;;;;;;10498851;28;20056;-62
2024/01/24 12:36:45;;;;;;;67.93;8.98;;;10.40;99.90;;;;;;10498809;28;20094;-63
2024/01/24 12:41:48;;;;;;;64.65;12.15;;;10.30;99.90;;;;;;10507139;28;20055;-61
2024/01/24 12:46:55;;;;;;;57.17;11.00;;;10.30;99.90;;;;;;10507072;28;20158;-62
2024/01/24 12:51:59;;;;;;;54.08;11.25;;;10.20;99.90;;;;;;10504834;28;20636;-61
2024/01/24 12:57:01;;;;;;;67.38;13.88;;;10.20;99.90;;;;;;10505285;28;20974;-62
2024/01/24 13:02:03;;;;;;;57.03;8.00;;;10.20;99.90;;;;;;10508468;28;20530;-63
2024/01/24 13:07:07;;;;;;;60.22;9.45;;;10.20;99.90;;;;;;10503561;28;20102;-62
2024/01/24 13:12:09;;;;;;;62.80;9.45;;;10.00;99.90;;;;;;10500822;28;20051;-62
2024/01/24 13:17:11;;;;;;;48.78;8.43;;;10.10;99.90;;;;;;10506807;28;20044;-64
2024/01/24 13:22:15;;;;;;;49.92;10.45;;;10.20;99.90;;;;;;10502554;28;20502;-63
2024/01/24 13:27:19;;;;;;;59.97;9.25;;;10.30;99.90;;;;;;10506343;28;20048;-63
2024/01/24 13:32:22;;;;;;;67.05;11.88;;;10.20;99.90;;;;;;10504873;28;20055;-64
2024/01/24 13:37:25;;;;;;;67.13;12.80;;;10.00;99.90;;;;;;10503311;28;20619;-62
2024/01/24 13:42:27;;;;;;;49.10;7.78;;;9.90;99.90;;;;;;10502567;28;20631;-61
2024/01/24 13:47:29;;;;;;;49.03;9.68;;;10.10;99.90;;;;;;10500334;28;20058;-63
2024/01/24 13:52:33;;;;;;;43.65;8.05;;;10.00;99.90;;;;;;10503226;28;20518;-60
2024/01/24 13:57:35;;;;;;;58.67;8.75;;;10.00;99.90;;;;;;10505317;28;20174;-62
2024/01/24 14:02:37;;;;;;;70.22;9.63;;;10.20;99.90;;;;;;10496767;28;20177;-61
2024/01/24 14:07:42;;;;;;;51.75;6.88;;;10.20;99.90;;;;;;10503333;28;21015;-62
2024/01/24 14:12:44;;;;;;;57.83;8.13;;;9.80;99.90;;;;;;10503823;28;20102;-62
2024/01/24 14:17:46;;;;;;;42.10;6.82;;;10.00;99.90;;;;;;10505775;28;20063;-63
2024/01/24 14:22:51;;;;;;;58.45;9.18;;;9.90;99.90;;;;;;10502934;28;20059;-63
2024/01/24 14:27:52;;;;;;;48.25;7.35;;;9.90;99.90;;;;;;10498471;28;20052;-61
2024/01/24 14:32:55;;;;;;;39.42;6.60;;;10.20;99.90;;;;;;10502370;28;20090;-61
2024/01/24 14:37:58;;;;;;;39.08;6.90;;;10.10;99.90;;;;;;10502333;28;20056;-63
2024/01/24 14:43:00;;;;;;;76.45;10.48;;;10.10;99.90;;;;;;10500507;28;20089;-61
2024/01/24 14:48:02;;;;;;;56.65;9.77;;;10.10;99.90;;;;;;10494550;28;20057;-63
2024/01/24 14:53:06;;;;;;;43.30;6.78;;;9.90;99.90;;;;;;10502388;28;20063;-61
2024/01/24 14:58:08;;;;;;;42.50;7.60;;;9.90;99.90;;;;;;10490263;28;20795;-62
2024/01/24 15:03:10;;;;;;;28.17;6.03;;;9.80;99.90;;;;;;10500883;28;20055;-61
2024/01/24 15:08:15;;;;;;;67.18;9.90;;;9.80;99.90;;;;;;10497983;28;20043;-62
2024/01/24 15:13:17;;;;;;;47.13;8.52;;;9.80;99.90;;;;;;10495394;28;20056;-62
2024/01/24 15:18:20;;;;;;;46.63;7.50;;;10.00;99.90;;;;;;10496113;28;20049;-62
2024/01/24 15:23:23;;;;;;;64.77;10.40;;;9.90;99.90;;;;;;10503655;28;20942;-63
2024/01/24 15:28:25;;;;;;;52.53;7.57;;;9.90;99.90;;;;;;10493659;28;20171;-63
2024/01/24 15:33:31;;;;;;;35.92;6.00;;;10.20;99.90;;;;;;10499440;28;20048;-63
2024/01/24 15:38:35;;;;;;;53.88;8.75;;;10.40;99.90;;;;;;10502675;28;20518;-63
2024/01/24 15:43:37;;;;;;;49.55;8.07;;;9.90;99.90;;;;;;10494530;28;20052;-61
2024/01/24 15:48:40;;;;;;;47.10;6.37;;;9.80;99.90;;;;;;10493485;28;20066;-62
2024/01/24 15:53:46;;;;;;;31.48;5.00;;;10.10;99.90;;;;;;10492747;28;21160;-63
2024/01/24 15:58:48;;;;;;;41.13;7.03;;;10.20;99.90;;;;;;10492151;28;20177;-63
2024/01/24 16:03:51;;;;;;;47.33;7.90;;;9.90;99.90;;;;;;10498315;28;20048;-61
2024/01/24 16:08:54;;;;;;;43.53;8.05;;;9.80;99.90;;;;;;10489604;28;20364;-62
2024/01/24 16:13:57;;;;;;;44.03;6.85;;;9.80;99.90;;;;;;10493435;28;20166;-61
2024/01/24 16:18:59;;;;;;;50.30;7.43;;;9.70;99.90;;;;;;10491593;28;20598;-61
2024/01/24 16:24:03;;;;;;;46.42;7.70;;;9.80;99.90;;;;;;10489058;28;20063;-61
2024/01/24 16:29:05;;;;;;;49.50;8.43;;;9.80;99.90;;;;;;10494985;28;20143;-63
2024/01/24 16:34:07;;;;;;;54.50;7.28;;;10.00;99.90;;;;;;10489092;28;20446;-63
2024/01/24 16:39:10;;;;;;;44.00;6.68;;;9.80;99.90;;;;;;10492985;28;20852;-61
2024/01/24 16:44:14;;;;;;;;;;;9.60;99.90;;;;;;10490289;28;20063;-63
2024/01/24 16:49:16;;;;;;;50.10;8.35;;;9.80;99.90;;;;;;10491388;28;19939;-62
2024/01/24 16:54:19;;;;;;;22.30;5.07;;;9.70;99.90;;;;;;10497094;28;20399;-62
2024/01/24 16:59:24;;;;;;;41.85;8.63;;;9.60;99.90;;;;;;10483577;28;20055;-62
2024/01/24 17:04:28;;;;;;;36.00;7.43;;;9.50;99.90;;;;;;10497097;28;20048;-63
2024/01/24 17:09:32;;;;;;;45.20;6.53;;;9.60;99.90;;;;;;10495628;28;20086;-62
2024/01/24 17:14:34;;;;;;;56.20;9.35;;;9.50;99.90;;;;;;10495390;28;20055;-64
2024/01/24 17:19:36;;;;;;;43.85;7.63;;;9.40;99.90;;;;;;10493948;28;20086;-62
2024/01/24 17:24:40;;;;;;;52.50;8.55;;;9.50;99.90;;;;;;10501446;28;20543;-63
2024/01/24 17:29:44;;;;;;;44.38;6.95;;;9.50;99.90;;;;;;10493749;28;20059;-61
2024/01/24 17:34:45;;;;;;;42.33;7.55;;;9.50;99.90;;;;;;10493546;28;20121;-62
2024/01/24 17:39:53;;;;;;;60.15;8.30;;;9.60;99.90;;;;;;10494364;28;20056;-63
2024/01/24 17:44:55;;;;;;;27.33;5.45;;;9.60;99.90;;;;;;10492117;28;20051;-62
2024/01/24 17:49:57;;;;;;;39.20;6.38;;;10.00;99.90;;;;;;10489545;28;20048;-62
2024/01/24 17:55:01;;;;;;;31.73;6.05;;;9.80;99.90;;;;;;10495483;28;20632;-61
2024/01/24 18:00:05;;;;;;;33.38;5.10;;;9.80;99.90;;;;;;10487231;28;20055;-62
2024/01/24 18:05:07;;;;;;;32.20;5.85;;;9.80;99.90;;;;;;10495149;28;20736;-60
2024/01/24 18:10:11;;;;;;;43.30;6.03;;;9.70;99.90;;;;;;10492250;28;20150;-60
2024/01/24 18:15:13;;;;;;;31.90;6.40;;;9.50;99.90;;;;;;10496261;28;20220;-59
2024/01/24 18:20:15;;;;;;;35.67;5.68;;;9.60;99.90;;;;;;10495659;28;20056;-60
2024/01/24 18:25:19;;;;;;;47.03;7.03;;;9.70;99.90;;;;;;10492966;28;20090;-61
2024/01/24 18:30:21;;;;;;;29.08;5.75;;;9.60;99.90;;;;;;10494795;28;20170;-62
2024/01/24 18:35:23;;;;;;;31.17;6.43;;;9.70;99.90;;;;;;10497486;28;20040;-60
2024/01/24 18:40:26;;;;;;;41.72;6.30;;;9.60;99.90;;;;;;10494396;28;20055;-60
2024/01/24 18:45:28;;;;;;;38.17;7.50;;;9.70;99.90;;;;;;10498740;28;20074;-60
2024/01/24 18:50:30;;;;;;;30.60;4.63;;;9.80;99.90;;;;;;10483986;28;20083;-61
2024/01/24 18:55:33;;;;;;;37.60;6.40;;;9.80;99.90;;;;;;10490992;28;20085;-59
2024/01/24 19:00:35;;;;;;;;;;;9.60;99.90;;;;;;10495226;28;20401;-61
2024/01/24 19:05:37;;;;;;;35.42;5.18;;;9.60;99.90;;;;;;10494690;28;19946;-60
2024/01/24 19:10:41;;;;;;;35.72;5.05;;;9.70;99.90;;;;;;10495513;28;20075;-60
2024/01/24 19:15:43;;;;;;;49.08;7.32;;;10.00;99.90;;;;;;10488968;28;20052;-60
2024/01/24 19:20:45;;;;;;;46.67;6.00;;;9.80;99.90;;;;;;10493186;28;20056;-60
2024/01/24 19:25:48;;;;;;;32.35;5.85;;;9.50;99.90;;;;;;10492217;28;20069;-61
2024/01/24 19:30:50;;;;;;;43.17;6.60;;;9.50;99.90;;;;;;10491465;28;20047;-62
2024/01/24 19:35:52;;;;;;;44.33;6.40;;;9.30;99.90;;;;;;10485546;28;20094;-61
2024/01/24 19:40:55;;;;;;;34.70;6.40;;;9.60;99.90;;;;;;10490529;28;20088;-59
2024/01/24 19:45:58;;;;;;;47.17;6.72;;;9.50;99.90;;;;;;10492467;28;20040;-62
2024/01/24 19:51:00;;;;;;;48.28;8.13;;;9.40;99.90;;;;;;10494435;28;20055;-60
2024/01/24 19:56:04;;;;;;;56.63;6.60;;;9.50;99.90;;;;;;10499168;28;20112;-59
2024/01/24 20:01:06;;;;;;;43.67;6.47;;;9.50;99.90;;;;;;10490518;28;20051;-60
2024/01/24 20:06:08;;;;;;;43.97;5.78;;;9.40;99.90;;;;;;10491044;28;20498;-60
2024/01/24 20:11:12;;;;;;;60.80;8.03;;;9.50;99.90;;;;;;10490669;28;20118;-59
2024/01/24 20:16:14;;;;;;;42.85;6.72;;;9.40;99.90;;;;;;10496133;28;20040;-60
2024/01/24 20:21:16;;;;;;;35.03;7.22;;;9.30;99.90;;;;;;10496015;28;20526;-61
2024/01/24 20:26:19;;;;;;;52.72;7.53;;;9.50;99.90;;;;;;10487298;28;20043;-59
2024/01/24 20:31:21;;;;;;;38.45;6.65;;;9.50;99.90;;;;;;10488029;28;20083;-59
2024/01/24 20:36:23;;;;;;;31.80;5.33;;;9.80;99.90;;;;;;10487958;28;20737;-58
2024/01/24 20:41:27;;;;;;;34.90;6.00;;;9.80;99.90;;;;;;10491093;28;20052;-59
2024/01/24 20:46:29;;;;;;;44.20;7.63;;;9.60;99.90;;;;;;10489769;28;20747;-59
2024/01/24 20:51:31;;;;;;;56.22;7.32;;;9.50;99.90;;;;;;10487679;28;20603;-57
2024/01/24 20:56:34;;;;;;;40.28;5.18;;;9.60;99.90;;;;;;10500983;28;20589;-58
2024/01/24 21:01:36;;;;;;;43.47;8.25;;;9.60;99.90;;;;;;10501767;28;20055;-59
2024/01/24 21:06:38;;;;;;;40.40;7.18;;;9.70;99.90;;;;;;10497630;28;20230;-62
2024/01/24 21:11:42;;;;;;;34.55;5.05;;;9.60;99.90;;;;;;10503044;28;20769;-60
2024/01/24 21:16:44;;;;;;;53.28;10.00;;;9.50;99.90;;;;;;10500436;28;20134;-59
2024/01/24 21:21:46;;;;;;;35.10;6.10;;;9.50;99.90;;;;;;10502755;28;20211;-57
2024/01/24 21:26:50;;;;;;;42.22;8.80;;;9.60;99.90;;;;;;10500743;28;20055;-57
2024/01/24 21:31:53;;;;;;;47.10;8.35;;;9.50;99.90;;;;;;10499066;28;20048;-56
2024/01/24 21:36:54;;;;;;;30.98;5.18;;;9.50;99.90;;;;;;10500302;28;20044;-59
2024/01/24 21:41:58;;;;;;;47.05;10.02;;;9.60;99.90;;;;;;10495049;28;20124;-61
2024/01/24 21:47:04;;;;;;;46.55;7.57;;;9.40;99.90;;;;;;10491031;28;20127;-59
2024/01/24 21:52:06;;;;;;;44.88;7.25;;;9.60;99.90;;;;;;10499511;28;20076;-58
2024/01/24 21:57:09;;;;;;;42.65;8.35;;;9.50;99.90;;;;;;10510228;28;20051;-59
2024/01/24 22:02:11;;;;;;;42.15;8.98;;;9.60;99.90;;;;;;10496609;28;20052;-60
2024/01/24 22:07:13;;;;;;;45.55;7.40;;;9.20;99.90;;;;;;10506260;28;20093;-59
2024/01/24 22:12:17;;;;;;;33.33;4.82;;;9.10;99.90;;;;;;10503009;28;20443;-58
2024/01/24 22:17:19;;;;;;;;;;;9.20;99.90;;;;;;10497320;28;20059;-59
2024/01/24 22:22:21;;;;;;;45.53;6.35;;;9.10;99.90;;;;;;10512877;28;20011;-59
2024/01/24 22:27:24;;;;;;;37.33;5.43;;;9.20;99.90;;;;;;10506787;28;20068;-58
2024/01/24 22:32:26;;;;;;;54.67;6.75;;;9.30;99.90;;;;;;10506315;28;20081;-57
2024/01/24 22:37:28;;;;;;;58.67;9.15;;;9.10;99.90;;;;;;10503820;28;20043;-59
2024/01/24 22:42:31;;;;;;;47.00;7.07;;;9.10;99.90;;;;;;10493643;28;20076;-58
2024/01/24 22:47:33;;;;;;;49.00;7.80;;;9.10;99.90;;;;;;10491244;28;20048;-59
2024/01/24 22:52:35;;;;;;;42.42;5.93;;;9.00;99.90;;;;;;10503607;28;20766;-60
2024/01/24 22:57:39;;;;;;;46.10;5.28;;;9.00;99.90;;;;;;10499722;28;20113;-59
2024/01/24 23:02:41;;;;;;;38.63;4.80;;;9.10;99.90;;;;;;10495686;28;20518;-57
2024/01/24 23:07:43;;;;;;;59.88;6.22;;;9.20;99.90;;;;;;10513621;28;20079;-60
2024/01/24 23:12:46;;;;;;;48.80;7.00;;;9.10;99.90;;;;;;10508687;28;20133;-59
2024/01/24 23:17:48;;;;;;;35.47;5.30;;;9.20;99.90;;;;;;10512822;28;20055;-59
2024/01/24 23:22:50;;;;;;;64.60;6.15;;;8.60;99.90;;;;;;10510901;28;20506;-59
2024/01/24 23:27:53;;;;;;;65.88;6.95;;;8.60;99.90;;;;;;10509829;28;20881;-57
2024/01/24 23:32:55;;;;;;;;;;;8.80;99.90;;;;;;10511270;28;20407;-60
2024/01/24 23:37:57;;;;;;;60.17;7.43;;;8.60;99.90;;;;;;10509598;28;20615;-60
2024/01/24 23:43:00;;;;;;;52.47;3.65;;;8.80;99.90;;;;;;10509769;28;20058;-59
2024/01/24 23:48:02;;;;;;;41.47;5.35;;;9.40;99.90;;;;;;10511322;28;20380;-57
2024/01/24 23:53:06;;;;;;;23.63;4.50;;;9.50;99.90;;;;;;10511078;28;20048;-59
2024/01/24 23:58:10;;;;;;;45.40;5.05;;;9.00;99.90;;;;;;10507090;28;20132;-59
